Time;durP1;ratioP1;P1;durP2;ratioP2;P2;SDS_P1;SDS_P2;PMS_P1;PMS_P2;Temp;Humidity;BMP_temperature;BMP_pressure;BME280_temperature;BME280_humidity;BME280_pressure;Samples;Min_cycle;Max_cycle;Signal;HPM_P1;HPM_P2
2023/12/04 00:01:33;;;;;;;6.28;2.80;;;;;;;25.15;34.16;100526.88;4362062;32;34089;-59
2023/12/04 00:04:01;;;;;;;6.78;2.85;;;;;;;25.14;34.34;100527.09;4362057;32;34896;-59
2023/12/04 00:06:29;;;;;;;6.43;3.20;;;;;;;25.12;34.22;100519.09;4362012;32;33893;-60
2023/12/04 00:08:56;;;;;;;8.73;3.35;;;;;;;25.11;34.14;100524.78;4361824;32;34675;-60
2023/12/04 00:11:24;;;;;;;9.00;3.08;;;;;;;25.08;34.20;100520.59;4362093;32;34295;-59
2023/12/04 00:13:52;;;;;;;6.95;2.80;;;;;;;25.06;34.25;100514.50;4362166;32;33892;-59
2023/12/04 00:16:20;;;;;;;5.68;2.83;;;;;;;25.06;34.31;100519.13;4362185;32;34048;-59
2023/12/04 00:18:47;;;;;;;10.65;2.70;;;;;;;25.03;34.42;100520.38;4362109;32;33727;-59
2023/12/04 00:21:15;;;;;;;6.78;3.08;;;;;;;25.02;34.49;100520.62;4362120;32;33584;-59
2023/12/04 00:23:42;;;;;;;6.93;2.60;;;;;;;25.01;34.49;100514.31;4361891;32;34057;-59
2023/12/04 00:26:11;;;;;;;10.52;3.20;;;;;;;24.99;34.62;100513.69;4361999;32;33837;-59
2023/12/04 00:28:39;;;;;;;8.98;3.20;;;;;;;24.98;34.62;100513.91;4361889;32;34640;-59
2023/12/04 00:31:06;;;;;;;4.95;2.78;;;;;;;24.97;34.52;100517.72;4362036;32;33714;-59
2023/12/04 00:33:34;;;;;;;5.35;2.87;;;;;;;24.95;34.50;100515.22;4361981;32;33791;-59
2023/12/04 00:36:02;;;;;;;6.37;3.08;;;;;;;24.93;34.56;100512.69;4361984;32;34076;-59
2023/12/04 00:38:30;;;;;;;5.75;3.08;;;;;;;24.92;34.58;100521.09;4362150;32;33564;-59
2023/12/04 00:40:58;;;;;;;5.47;2.92;;;;;;;24.91;34.61;100519.44;4361952;32;33967;-59
2023/12/04 00:43:26;;;;;;;5.15;2.78;;;;;;;24.89;34.62;100521.53;4361804;32;33854;-59
2023/12/04 00:45:53;;;;;;;7.70;2.97;;;;;;;24.88;34.59;100520.69;4361945;32;33788;-59
2023/12/04 00:48:21;;;;;;;5.85;2.95;;;;;;;24.86;34.63;100520.09;4362145;32;34129;-59
2023/12/04 00:50:51;;;;;;;5.15;2.65;;;;;;;24.85;34.69;100521.13;4362087;32;33809;-59
2023/12/04 00:53:18;;;;;;;12.00;3.55;;;;;;;24.82;34.68;100518.84;4362017;32;34069;-59
2023/12/04 00:55:46;;;;;;;5.82;2.72;;;;;;;24.83;34.79;100520.50;4361263;32;35015;-59
2023/12/04 00:58:13;;;;;;;11.88;2.70;;;;;;;24.81;34.82;100513.62;4360838;32;34631;-61
2023/12/04 01:00:41;;;;;;;8.55;2.97;;;;;;;24.81;34.72;100509.00;4361966;32;33511;-60
2023/12/04 01:03:08;;;;;;;5.25;3.03;;;;;;;24.78;34.85;100514.87;4361724;32;34267;-59
2023/12/04 01:05:36;;;;;;;4.32;2.58;;;;;;;24.77;34.81;100510.47;4361502;32;34291;-59
2023/12/04 01:08:03;;;;;;;8.18;2.92;;;;;;;24.76;34.80;100506.09;4361345;32;34650;-60
2023/12/04 01:10:31;;;;;;;6.20;2.60;;;;;;;24.74;34.93;100507.34;4361624;32;33453;-59
2023/12/04 01:12:59;;;;;;;6.68;2.85;;;;;;;24.73;34.69;100511.97;4361619;32;34695;-59
2023/12/04 01:15:26;;;;;;;7.32;3.10;;;;;;;24.71;34.79;100507.78;4361817;32;34036;-59
2023/12/04 01:17:54;;;;;;;7.55;2.85;;;;;;;24.71;34.80;100518.69;4361546;32;33865;-59
2023/12/04 01:20:22;;;;;;;6.22;3.42;;;;;;;24.67;34.89;100519.13;4361559;32;34222;-59
2023/12/04 01:22:50;;;;;;;6.12;2.40;;;;;;;24.69;34.86;100521.63;4361410;32;33666;-59
2023/12/04 01:25:18;;;;;;;5.25;2.62;;;;;;;24.66;34.79;100524.78;4361326;32;33969;-59
2023/12/04 01:27:46;;;;;;;8.73;3.10;;;;;;;24.65;34.76;100543.06;4361135;32;34044;-59
2023/12/04 01:30:13;;;;;;;7.30;2.42;;;;;;;24.64;34.49;100544.12;4361464;32;33238;-59
2023/12/04 01:32:41;;;;;;;6.35;2.85;;;;;;;24.63;34.70;100541.63;4361389;32;34777;-59
2023/12/04 01:35:09;;;;;;;5.15;2.62;;;;;;;24.62;34.77;100543.50;4361155;32;34122;-59
2023/12/04 01:37:37;;;;;;;5.40;3.03;;;;;;;24.60;34.79;100539.31;4361257;32;33968;-59
2023/12/04 01:40:06;;;;;;;4.93;2.80;;;;;;;24.58;34.82;100534.09;4361257;32;33310;-60
2023/12/04 01:42:34;;;;;;;7.93;2.90;;;;;;;24.58;34.76;100533.25;4360931;32;34712;-62
2023/12/04 01:45:02;;;;;;;7.07;3.10;;;;;;;24.58;34.82;100533.25;4361464;32;34161;-60
2023/12/04 01:47:30;;;;;;;5.45;2.40;;;;;;;24.57;34.70;100539.75;4361104;32;34123;-60
2023/12/04 01:49:57;;;;;;;5.70;2.40;;;;;;;24.56;34.77;100530.72;4347890;32;33504;-61
2023/12/04 01:52:25;;;;;;;4.85;2.60;;;;;;;24.56;34.75;100538.91;4360983;32;33971;-61
2023/12/04 01:54:52;;;;;;;5.85;2.60;;;;;;;24.54;34.85;100543.75;4361330;32;34050;-61
2023/12/04 01:57:20;;;;;;;4.72;2.50;;;;;;;24.53;35.02;100544.81;4360794;32;33873;-61
2023/12/04 01:59:47;;;;;;;4.97;2.60;;;;;;;24.53;35.00;100544.81;4347602;32;34111;-61
2023/12/04 02:02:15;;;;;;;6.10;3.00;;;;;;;24.51;35.08;100541.44;4360923;32;34898;-61
2023/12/04 02:04:43;;;;;;;6.28;2.80;;;;;;;24.49;34.96;100540.84;4360707;32;34974;-61
2023/12/04 02:07:10;;;;;;;5.53;2.80;;;;;;;24.49;34.98;100538.09;4360621;32;34210;-61
2023/12/04 02:09:38;;;;;;;6.20;2.85;;;;;;;24.48;35.20;100533.72;4362329;32;33777;-61
2023/12/04 02:12:06;;;;;;;8.98;2.95;;;;;;;24.47;35.13;100533.91;4362855;32;33783;-61
2023/12/04 02:14:33;;;;;;;4.57;2.50;;;;;;;24.47;35.01;100528.44;4349351;32;34034;-61
2023/12/04 02:17:01;;;;;;;6.60;2.83;;;;;;;24.45;35.17;100533.31;4363128;32;34027;-62
2023/12/04 02:19:29;;;;;;;5.85;2.40;;;;;;;24.43;35.14;100530.75;4337336;32;34268;-60
2023/12/04 02:21:57;;;;;;;4.80;2.50;;;;;;;24.42;35.02;100537.28;4349403;32;34251;-61
2023/12/04 02:24:24;;;;;;;7.68;3.33;;;;;;;24.42;34.95;100535.37;4362871;32;34910;-61
2023/12/04 02:26:56;;;;;;;4.82;2.87;;;;;;;24.40;35.21;100533.94;4362683;32;34549;-61
2023/12/04 02:29:29;;;;;;;5.53;2.67;;;;;;;24.39;35.20;100533.09;4349692;32;33486;-61
2023/12/04 02:31:57;;;;;;;5.75;2.70;;;;;;;24.38;35.30;100533.31;4337243;32;33693;-61
2023/12/04 02:34:24;;;;;;;5.75;2.58;;;;;;;24.37;35.26;100534.38;4337104;32;33973;-61
2023/12/04 02:36:52;;;;;;;5.78;2.58;;;;;;;24.37;35.37;100531.63;4349305;32;34637;-61
2023/12/04 02:39:20;;;;;;;6.03;2.55;;;;;;;24.36;35.31;100529.94;4349104;32;33217;-61
2023/12/04 02:41:47;;;;;;;4.50;2.30;;;;;;;24.33;35.21;100531.19;4362772;32;34566;-61
2023/12/04 02:44:15;;;;;;;6.30;2.33;;;;;;;24.33;35.27;100539.38;4349274;32;33760;-61
2023/12/04 02:46:43;;;;;;;6.10;2.40;;;;;;;24.33;35.29;100544.00;4362303;32;34806;-61
2023/12/04 02:49:10;;;;;;;4.72;2.53;;;;;;;24.31;35.41;100543.38;4362943;32;33511;-61
2023/12/04 02:51:41;;;;;;;6.53;2.72;;;;;;;24.30;35.47;100547.16;4362840;32;34176;-61
2023/12/04 02:54:08;;;;;;;5.97;2.85;;;;;;;24.29;35.55;100543.56;4362513;32;33814;-61
2023/12/04 02:56:36;;;;;;;5.62;2.60;;;;;;;24.29;35.45;100540.84;4362591;32;34322;-61
2023/12/04 02:59:03;;;;;;;5.95;2.62;;;;;;;24.28;35.54;100543.81;4362503;32;32835;-59
2023/12/04 03:01:31;;;;;;;6.47;2.58;;;;;;;24.28;35.68;100538.34;4362524;32;34997;-61
2023/12/04 03:03:58;;;;;;;7.10;2.58;;;;;;;24.27;35.70;100544.84;4362504;32;33793;-61
2023/12/04 03:06:26;;;;;;;4.93;2.50;;;;;;;24.25;35.68;100545.09;4362790;32;34378;-61
2023/12/04 03:08:54;;;;;;;7.03;2.78;;;;;;;24.25;35.62;100546.94;4362177;32;33582;-61
2023/12/04 03:11:21;;;;;;;4.95;2.45;;;;;;;24.25;35.65;100552.41;4362542;32;34054;-61
2023/12/04 03:13:49;;;;;;;5.10;2.60;;;;;;;24.24;35.71;100556.19;4362798;32;34115;-61
2023/12/04 03:16:17;;;;;;;5.40;2.85;;;;;;;24.23;35.75;100555.34;4362334;32;33477;-61
2023/12/04 03:18:44;;;;;;;4.65;2.35;;;;;;;24.20;35.78;100553.03;4362282;32;33477;-61
2023/12/04 03:21:12;;;;;;;4.28;2.28;;;;;;;24.20;35.79;100544.84;4361675;32;35029;-61
2023/12/04 03:23:40;;;;;;;7.28;3.08;;;;;;;24.20;35.76;100550.31;4362248;32;34934;-61
2023/12/04 03:26:08;;;;;;;5.03;2.37;;;;;;;24.19;35.82;100551.38;4362379;32;34677;-61
2023/12/04 03:28:36;;;;;;;5.35;2.30;;;;;;;24.17;35.86;100548.87;4362271;32;33571;-61
2023/12/04 03:31:04;;;;;;;6.22;2.40;;;;;;;24.17;35.93;100558.94;4362227;32;34088;-61
2023/12/04 03:33:31;;;;;;;7.65;2.65;;;;;;;24.15;35.89;100563.75;4362609;32;34059;-61
2023/12/04 03:35:59;;;;;;;5.75;2.70;;;;;;;24.16;35.84;100569.00;4362277;32;34095;-61
2023/12/04 03:38:27;;;;;;;5.62;2.62;;;;;;;24.14;35.87;100565.66;4362229;32;34117;-61
2023/12/04 03:40:54;;;;;;;5.75;2.40;;;;;;;24.14;35.97;100568.38;4362235;32;33986;-61
2023/12/04 03:43:22;;;;;;;8.52;2.95;;;;;;;24.12;35.94;100559.56;4362478;32;33519;-61
2023/12/04 03:45:49;;;;;;;6.10;2.33;;;;;;;24.11;35.99;100559.81;4362080;32;34129;-62
2023/12/04 03:48:17;;;;;;;5.20;2.37;;;;;;;24.10;35.91;100567.13;4362141;32;34473;-61
2023/12/04 03:50:45;;;;;;;5.35;2.53;;;;;;;24.09;35.97;100568.16;4362569;32;34111;-61
2023/12/04 03:53:12;;;;;;;5.85;2.50;;;;;;;24.08;35.98;100561.06;4362018;32;34003;-61
2023/12/04 03:55:40;;;;;;;3.90;2.05;;;;;;;24.08;35.96;100558.31;4362293;32;34033;-61
2023/12/04 03:58:07;;;;;;;8.45;2.25;;;;;;;24.07;36.05;100558.56;4362458;32;33510;-60
2023/12/04 04:00:35;;;;;;;8.25;2.58;;;;;;;24.06;36.05;100557.72;4362075;32;33875;-61
2023/12/04 04:03:03;;;;;;;6.03;2.30;;;;;;;24.05;36.04;100558.75;4362194;32;34164;-61
2023/12/04 04:05:34;;;;;;;5.45;2.10;;;;;;;24.04;36.03;100537.16;4362190;32;34689;-61
2023/12/04 04:08:02;;;;;;;7.53;2.40;;;;;;;24.03;36.05;100539.03;4361968;32;35014;-61
2023/12/04 04:10:29;;;;;;;4.00;2.10;;;;;;;24.01;36.07;100541.13;4362094;32;33976;-61
2023/12/04 04:12:57;;;;;;;4.40;2.35;;;;;;;24.01;36.00;100540.28;4361889;32;34100;-61
2023/12/04 04:15:24;;;;;;;3.33;1.98;;;;;;;24.00;36.07;100530.44;4362447;32;34045;-61
2023/12/04 04:17:52;;;;;;;6.10;2.33;;;;;;;23.99;36.13;100532.34;4362181;32;33412;-61
2023/12/04 04:20:20;;;;;;;4.62;2.10;;;;;;;23.98;36.12;100536.13;4361887;32;33628;-61
2023/12/04 04:22:48;;;;;;;5.62;2.45;;;;;;;23.98;36.20;100540.75;4362131;32;33979;-61
2023/12/04 04:25:16;;;;;;;4.87;2.12;;;;;;;23.97;36.14;100542.63;4361963;32;34143;-61
2023/12/04 04:27:43;;;;;;;5.75;2.15;;;;;;;23.97;36.09;100548.09;4362005;32;33523;-61
2023/12/04 04:30:13;;;;;;;8.77;3.03;;;;;;;23.96;36.17;100549.09;4362007;32;33776;-61
2023/12/04 04:32:41;;;;;;;;;;;;;;;23.96;36.13;100551.84;4362235;32;34972;-61
2023/12/04 04:35:08;;;;;;;6.25;2.40;;;;;;;24.05;36.00;100547.84;4361692;32;35362;-61
2023/12/04 04:37:36;;;;;;;7.43;2.40;;;;;;;23.97;36.11;100552.66;4361927;32;33788;-61
2023/12/04 04:40:04;;;;;;;5.25;2.17;;;;;;;23.96;36.14;100561.91;4361889;32;34642;-60
2023/12/04 04:42:32;;;;;;;6.28;2.42;;;;;;;23.93;36.21;100560.44;4361657;32;34038;-61
2023/12/04 04:44:59;;;;;;;6.45;2.10;;;;;;;23.92;36.24;100559.63;4361905;32;34017;-61
2023/12/04 04:47:27;;;;;;;3.85;2.10;;;;;;;23.92;36.28;100556.91;4361990;32;33351;-61
2023/12/04 04:49:55;;;;;;;5.35;2.35;;;;;;;23.93;36.32;100552.28;4361625;32;34838;-61
2023/12/04 04:52:22;;;;;;;4.43;2.00;;;;;;;23.90;36.18;100548.06;4361829;32;34095;-61
2023/12/04 04:54:50;;;;;;;4.90;2.00;;;;;;;23.90;36.26;100550.78;4361796;32;34189;-61
2023/12/04 04:57:17;;;;;;;4.55;2.33;;;;;;;23.91;36.31;100554.34;4361591;32;34168;-61
2023/12/04 04:59:45;;;;;;;6.78;2.22;;;;;;;23.89;36.31;100560.03;4361685;32;34931;-61
2023/12/04 05:02:13;;;;;;;4.97;2.35;;;;;;;23.88;36.36;100565.72;4361652;32;34049;-61
2023/12/04 05:04:40;;;;;;;7.32;2.47;;;;;;;23.88;36.38;100568.44;4361578;32;33970;-61
2023/12/04 05:07:08;;;;;;;5.00;2.10;;;;;;;23.87;36.37;100567.56;4361623;32;34263;-61
2023/12/04 05:09:36;;;;;;;6.07;1.92;;;;;;;23.86;36.30;100570.50;4361492;32;34840;-61
2023/12/04 05:12:03;;;;;;;7.40;2.40;;;;;;;23.86;36.30;100556.88;4361417;32;34044;-61
2023/12/04 05:14:31;;;;;;;6.87;2.20;;;;;;;23.85;36.40;100560.66;4361448;32;34851;-61
2023/12/04 05:16:59;;;;;;;5.82;2.00;;;;;;;23.84;36.40;100559.81;4361643;32;33204;-62
2023/12/04 05:19:26;;;;;;;4.93;2.17;;;;;;;23.85;36.39;100560.66;4361483;32;33783;-61
2023/12/04 05:21:54;;;;;;;4.37;1.77;;;;;;;23.84;36.41;100562.56;4361685;32;34075;-61
2023/12/04 05:24:22;;;;;;;4.75;2.15;;;;;;;23.83;36.35;100560.88;4361387;32;33878;-62
2023/12/04 05:26:49;;;;;;;6.07;2.30;;;;;;;23.83;36.37;100562.78;4361309;32;33599;-61
2023/12/04 05:29:16;;;;;;;5.60;2.20;;;;;;;23.82;36.46;100555.63;4361236;32;34634;-61
2023/12/04 05:31:44;;;;;;;4.62;2.20;;;;;;;23.82;36.44;100561.06;4361344;32;33786;-61
2023/12/04 05:34:12;;;;;;;6.57;2.47;;;;;;;23.80;36.48;100566.75;4361446;32;33936;-61
2023/12/04 05:36:39;;;;;;;10.15;2.10;;;;;;;23.79;36.50;100562.34;4361304;32;33195;-61
2023/12/04 05:39:07;;;;;;;3.85;2.20;;;;;;;23.79;36.38;100565.06;4361222;32;34860;-61
2023/12/04 05:41:34;;;;;;;6.45;2.33;;;;;;;23.78;36.38;100557.97;4361013;32;34048;-61
2023/12/04 05:44:02;;;;;;;3.92;1.98;;;;;;;23.75;36.41;100563.81;4362491;32;34704;-61
2023/12/04 05:46:29;;;;;;;3.75;1.95;;;;;;;23.75;36.41;100565.72;4363066;32;34190;-61
2023/12/04 05:48:57;;;;;;;7.22;2.30;;;;;;;23.74;36.47;100562.16;4362848;32;34102;-61
2023/12/04 05:51:24;;;;;;;4.37;2.00;;;;;;;23.74;36.46;100562.16;4363020;32;35004;-61
2023/12/04 05:53:52;;;;;;;7.22;2.50;;;;;;;23.73;36.51;100565.06;4363104;32;34023;-61
2023/12/04 05:56:19;;;;;;;4.68;2.20;;;;;;;23.72;36.50;100555.22;4362857;32;33495;-61
2023/12/04 05:58:47;;;;;;;4.22;2.20;;;;;;;23.71;36.51;100562.56;4363255;32;34114;-60
2023/12/04 06:01:15;;;;;;;6.10;2.30;;;;;;;23.70;36.49;100571.78;4362962;32;33865;-61
2023/12/04 06:03:43;;;;;;;5.62;2.30;;;;;;;23.71;36.47;100572.63;4362781;32;34746;-61
2023/12/04 06:06:10;;;;;;;5.18;2.53;;;;;;;23.70;36.44;100565.50;4363246;32;33473;-61
2023/12/04 06:08:38;;;;;;;5.35;2.12;;;;;;;23.70;36.43;100570.94;4362685;32;33916;-61
2023/12/04 06:11:06;;;;;;;5.10;2.03;;;;;;;23.68;36.58;100562.97;4362673;32;33729;-61
2023/12/04 06:13:33;;;;;;;4.20;2.03;;;;;;;23.67;36.53;100570.31;4363120;32;34767;-61
2023/12/04 06:16:01;;;;;;;3.97;2.08;;;;;;;23.67;36.51;100570.31;4362865;32;34527;-61
2023/12/04 06:18:29;;;;;;;4.72;1.80;;;;;;;23.67;36.54;100562.13;4362752;32;34489;-61
2023/12/04 06:20:57;;;;;;;5.05;2.10;;;;;;;23.66;36.62;100574.09;4363137;32;33617;-61
2023/12/04 06:23:24;;;;;;;6.10;2.20;;;;;;;23.66;36.59;100579.53;4362741;32;34327;-61
2023/12/04 06:25:52;;;;;;;5.53;2.25;;;;;;;23.65;36.57;100569.69;4362790;32;33266;-61
2023/12/04 06:28:20;;;;;;;3.62;1.98;;;;;;;23.64;36.60;100583.50;4362845;32;34061;-61
2023/12/04 06:30:48;;;;;;;6.00;2.08;;;;;;;23.64;36.59;100586.22;4362841;32;34779;-61
2023/12/04 06:33:18;;;;;;;8.18;2.00;;;;;;;23.64;36.64;100580.78;4362696;32;34711;-61
2023/12/04 06:35:45;;;;;;;6.65;2.20;;;;;;;23.63;36.60;100589.97;4362619;32;33321;-61
2023/12/04 06:38:14;;;;;;;8.73;2.20;;;;;;;23.65;36.56;100582.47;4362442;32;33776;-61
2023/12/04 06:40:43;;;;;;;5.97;2.70;;;;;;;23.62;36.62;100586.41;4362567;32;34021;-63
2023/12/04 06:43:10;;;;;;;6.53;2.35;;;;;;;23.64;36.06;100588.94;4362482;32;34763;-62
2023/12/04 06:45:38;;;;;;;6.80;2.50;;;;;;;23.62;35.63;100599.19;4349358;32;34283;-60
2023/12/04 06:48:07;;;;;;;6.18;2.47;;;;;;;23.60;35.23;100596.69;4362562;32;33536;-61
2023/12/04 06:50:34;;;;;;;7.15;3.05;;;;;;;23.58;34.79;100598.78;4362603;32;34968;-63
2023/12/04 06:53:02;;;;;;;6.20;3.20;;;;;;;23.57;34.44;100604.44;4362419;32;35139;-63
2023/12/04 06:55:29;;;;;;;6.53;3.10;;;;;;;23.56;34.35;100609.03;4362578;32;33152;-65
2023/12/04 06:57:57;;;;;;;14.00;10.35;;;;;;;23.53;34.08;100598.56;4362923;32;34099;-62
2023/12/04 07:00:25;;;;;;;7.65;4.70;;;;;;;23.55;29.31;100601.94;4362565;32;34637;-62
2023/12/04 07:02:52;;;;;;;10.65;5.40;;;;;;;23.47;31.67;100596.69;4362371;32;34188;-62
2023/12/04 07:05:21;;;;;;;9.68;5.90;;;;;;;23.43;32.59;100596.25;4362701;32;33815;-63
2023/12/04 07:07:48;;;;;;;8.80;5.10;;;;;;;23.42;32.48;100594.56;4362163;32;33955;-62
2023/12/04 07:10:16;;;;;;;8.15;5.55;;;;;;;23.47;32.53;100596.69;4362499;32;34945;-63
2023/12/04 07:12:44;;;;;;;8.30;5.12;;;;;;;23.54;32.40;100597.50;4362467;32;34084;-62
2023/12/04 07:15:11;;;;;;;7.90;4.60;;;;;;;23.64;32.18;100602.56;4362299;32;34160;-63
2023/12/04 07:17:39;;;;;;;7.03;4.20;;;;;;;23.73;31.90;100598.59;4362456;32;34291;-64
2023/12/04 07:20:08;;;;;;;9.13;4.97;;;;;;;23.86;31.63;100584.12;4362396;32;34044;-62
2023/12/04 07:22:35;;;;;;;7.10;4.50;;;;;;;23.93;31.63;100593.16;4362406;32;33978;-61
2023/12/04 07:25:09;;;;;;;8.60;4.97;;;;;;;24.03;31.48;100588.12;4362188;32;33497;-63
2023/12/04 07:27:37;;;;;;;11.07;4.85;;;;;;;24.13;31.18;100598.59;4362214;32;34023;-62
2023/12/04 07:30:06;;;;;;;8.13;4.50;;;;;;;24.21;30.86;100598.38;4362131;32;34132;-62
2023/12/04 07:32:35;;;;;;;9.25;4.47;;;;;;;24.28;30.56;100587.44;4362338;32;33651;-63
2023/12/04 07:35:03;;;;;;;6.95;4.72;;;;;;;24.36;30.28;100593.53;4362062;32;34242;-63
2023/12/04 07:37:32;;;;;;;8.73;4.78;;;;;;;24.43;30.10;100588.91;4362158;32;33697;-63
2023/12/04 07:40:00;;;;;;;9.00;4.30;;;;;;;24.51;29.91;100587.00;4362290;32;34972;-62
2023/12/04 07:42:28;;;;;;;9.02;4.68;;;;;;;24.55;29.64;100597.25;4362050;32;34854;-61
2023/12/04 07:44:55;;;;;;;9.35;4.37;;;;;;;24.59;29.55;100593.06;4362090;32;34080;-61
2023/12/04 07:47:23;;;;;;;8.13;4.12;;;;;;;24.66;29.57;100595.75;4362270;32;34852;-61
2023/12/04 07:49:52;;;;;;;11.33;4.80;;;;;;;24.73;29.53;100603.94;4362114;32;34271;-61
2023/12/04 07:52:20;;;;;;;14.85;5.03;;;;;;;24.82;29.51;100608.91;4362159;32;34951;-61
2023/12/04 07:54:48;;;;;;;11.25;5.18;;;;;;;24.89;29.49;100606.16;4362246;32;33565;-62
2023/12/04 07:57:16;;;;;;;8.98;4.82;;;;;;;24.94;29.62;100600.88;4362002;32;34803;-62
2023/12/04 07:59:44;;;;;;;13.77;5.82;;;;;;;25.00;29.63;100599.19;4362228;32;33563;-61
2023/12/04 08:02:11;;;;;;;9.65;4.68;;;;;;;25.05;29.67;100600.22;4362193;32;34550;-61
2023/12/04 08:04:39;;;;;;;8.35;3.62;;;;;;;25.10;29.69;100597.69;4362102;32;34424;-61
2023/12/04 08:07:06;;;;;;;8.60;4.50;;;;;;;25.14;30.18;100598.94;4361580;32;33656;-61
2023/12/04 08:09:34;;;;;;;6.47;3.90;;;;;;;25.19;30.32;100599.09;4361872;32;35044;-61
2023/12/04 08:12:02;;;;;;;10.52;3.83;;;;;;;25.27;29.96;100598.00;4361927;32;33767;-61
2023/12/04 08:14:29;;;;;;;9.68;4.62;;;;;;;25.31;29.86;100599.22;4362232;32;33259;-61
2023/12/04 08:16:57;;;;;;;7.62;4.00;;;;;;;25.38;29.85;100607.41;4361920;32;33649;-62
2023/12/04 08:19:24;;;;;;;12.77;4.97;;;;;;;25.45;29.85;100611.75;4362139;32;34056;-61
2023/12/04 08:21:52;;;;;;;7.70;4.37;;;;;;;25.52;29.91;100610.88;4362377;32;34744;-62
2023/12/04 08:24:19;;;;;;;10.60;4.35;;;;;;;25.56;29.93;100618.41;4362096;32;33200;-61
2023/12/04 08:26:47;;;;;;;10.63;4.20;;;;;;;25.62;29.97;100613.97;4361918;32;34729;-60
2023/12/04 08:29:15;;;;;;;7.30;4.35;;;;;;;25.66;29.96;100610.56;4361884;32;33865;-61
2023/12/04 08:31:42;;;;;;;11.45;4.18;;;;;;;25.70;29.89;100610.97;4362195;32;34672;-60
2023/12/04 08:34:10;;;;;;;8.48;4.10;;;;;;;25.75;29.90;100605.66;4357844;32;34436;-61
2023/12/04 08:36:37;;;;;;;9.32;3.90;;;;;;;25.80;29.96;100610.50;4374958;32;33976;-61
2023/12/04 08:39:13;;;;;;;9.32;3.90;;;;;;;25.85;29.93;100608.75;4366249;32;33936;-61
2023/12/04 08:41:41;;;;;;;9.10;4.05;;;;;;;25.91;29.90;100609.75;4361878;32;34878;-61
2023/12/04 08:44:21;;;;;;;9.50;4.40;;;;;;;25.95;29.91;100602.78;4362083;32;33437;-61
2023/12/04 08:46:48;;;;;;;8.75;3.70;;;;;;;26.01;29.84;100603.78;4361411;32;34730;-61
2023/12/04 08:49:16;;;;;;;6.78;3.92;;;;;;;26.06;29.79;100604.75;4361427;32;33543;-62
2023/12/04 08:51:44;;;;;;;9.63;4.22;;;;;;;26.12;29.75;100605.78;4366827;32;34282;-62
2023/12/04 08:54:11;;;;;;;11.45;4.47;;;;;;;26.17;29.70;100603.22;4361680;32;33575;-61
2023/12/04 08:56:42;;;;;;;9.38;4.45;;;;;;;26.22;29.68;100605.28;4361497;32;33963;-62
2023/12/04 08:59:10;;;;;;;9.10;4.55;;;;;;;26.26;29.68;100606.50;4361609;32;33606;-62
2023/12/04 09:01:37;;;;;;;10.80;4.35;;;;;;;26.30;29.67;100603.09;4361300;32;33701;-63
2023/12/04 09:04:05;;;;;;;7.40;4.00;;;;;;;26.36;29.65;100609.53;4361657;32;33537;-62
2023/12/04 09:06:33;;;;;;;10.68;3.58;;;;;;;26.41;29.64;100604.22;4332395;33;34892;-62
2023/12/04 09:09:04;;;;;;;13.18;4.43;;;;;;;26.45;29.64;100614.53;4346421;33;34073;-62
2023/12/04 09:11:42;;;;;;;8.98;4.43;;;;;;;26.51;29.61;100614.66;4353454;32;34738;-62
2023/12/04 09:14:10;;;;;;;8.05;4.32;;;;;;;26.55;29.54;100616.72;4361128;32;33622;-62
2023/12/04 09:16:37;;;;;;;8.45;4.30;;;;;;;26.57;29.52;100617.31;4356479;32;33429;-59
2023/12/04 09:19:05;;;;;;;8.27;4.45;;;;;;;26.60;29.53;100608.66;4352941;32;33402;-57
2023/12/04 09:21:33;;;;;;;10.85;4.87;;;;;;;26.60;29.58;100607.84;4360108;32;34742;-58
2023/12/04 09:24:01;;;;;;;7.82;4.40;;;;;;;26.64;29.58;100611.78;4353741;32;31924;-59
2023/12/04 09:26:29;;;;;;;13.93;4.30;;;;;;;26.66;29.55;100602.28;4371876;32;35312;-60
2023/12/04 09:28:57;;;;;;;9.05;4.60;;;;;;;26.70;29.51;100594.44;4365140;32;34154;-60
2023/12/04 09:31:24;;;;;;;9.63;4.55;;;;;;;26.74;29.49;100603.03;4360395;32;34859;-60
2023/12/04 09:33:52;;;;;;;10.15;4.97;;;;;;;26.78;29.45;100601.53;4361112;32;33551;-60
2023/12/04 09:36:20;;;;;;;12.82;5.25;;;;;;;26.80;29.45;100589.25;4359456;32;34069;-59
2023/12/04 09:38:47;;;;;;;11.57;4.40;;;;;;;26.83;29.44;100585.22;4357915;32;33573;-58
2023/12/04 09:41:15;;;;;;;8.05;4.40;;;;;;;26.85;29.48;100583.91;4360534;32;34000;-60
2023/12/04 09:43:44;;;;;;;7.85;4.82;;;;;;;26.87;29.49;100579.06;4347519;32;33357;-60
2023/12/04 09:46:11;;;;;;;8.63;4.20;;;;;;;26.88;29.58;100574.41;4345269;32;33548;-59
2023/12/04 09:48:40;;;;;;;8.55;4.32;;;;;;;26.88;29.61;100569.78;4347361;32;34499;-59
2023/12/04 09:51:09;;;;;;;10.65;5.25;;;;;;;26.87;29.63;100564.53;4344277;32;34728;-59
2023/12/04 09:53:36;;;;;;;9.75;4.28;;;;;;;26.88;29.65;100561.56;4358758;32;33564;-60
2023/12/04 09:56:04;;;;;;;9.60;4.75;;;;;;;26.85;29.68;100562.00;4358468;32;33958;-59
2023/12/04 09:58:32;;;;;;;9.23;4.47;;;;;;;26.82;29.78;100559.75;4343373;32;34630;-59
2023/12/04 10:01:03;;;;;;;9.10;4.05;;;;;;;26.80;29.85;100563.78;4358152;32;33787;-57
2023/12/04 10:03:33;;;;;;;7.68;4.22;;;;;;;26.75;29.94;100552.69;4335340;32;33501;-59
2023/12/04 10:06:01;;;;;;;9.40;4.57;;;;;;;26.73;29.99;100549.34;4358689;32;34065;-59
2023/12/04 10:08:28;;;;;;;8.38;5.00;;;;;;;26.68;30.03;100539.94;4353410;32;34492;-59
2023/12/04 10:10:56;;;;;;;6.97;4.22;;;;;;;26.65;30.11;100537.63;4359863;32;34047;-59
2023/12/04 10:13:24;;;;;;;8.02;4.15;;;;;;;26.60;30.12;100542.97;4344006;32;34258;-55
2023/12/04 10:16:11;;;;;;;7.65;4.87;;;;;;;26.56;30.25;100536.28;4359632;32;33888;-57
2023/12/04 10:18:39;;;;;;;7.20;4.30;;;;;;;26.53;30.28;100525.78;4360320;32;34139;-59
2023/12/04 10:21:07;;;;;;;7.93;4.32;;;;;;;26.48;30.31;100525.63;4358164;32;34551;-57
2023/12/04 10:23:43;;;;;;;8.75;4.00;;;;;;;26.44;30.37;100518.97;4357122;32;34477;-61
2023/12/04 10:26:15;;;;;;;8.47;4.43;;;;;;;26.40;30.37;100518.56;4360458;32;34879;-61
2023/12/04 10:29:00;;;;;;;9.38;4.78;;;;;;;26.36;30.42;100508.31;4365229;32;35012;-61
2023/12/04 10:31:34;;;;;;;7.12;4.28;;;;;;;26.34;30.51;100508.50;4356807;32;33860;-62
2023/12/04 10:34:04;;;;;;;12.82;5.12;;;;;;;26.29;30.54;100504.81;4362218;32;33058;-62
2023/12/04 10:36:33;;;;;;;11.05;4.55;;;;;;;26.23;30.61;100498.34;4374556;32;34227;-61
2023/12/04 10:39:04;;;;;;;10.43;4.68;;;;;;;26.18;30.62;100493.56;4362023;32;34048;-61
2023/12/04 10:41:32;;;;;;;8.65;4.78;;;;;;;26.15;30.60;100494.00;4361075;32;33758;-67
2023/12/04 10:44:00;;;;;;;14.60;5.35;;;;;;;26.11;30.64;100489.22;4362528;32;33418;-63
2023/12/04 10:46:37;;;;;;;17.80;4.90;;;;;;;26.08;30.73;100492.44;4359759;32;34974;-63
2023/12/04 10:49:05;;;;;;;10.05;4.97;;;;;;;26.01;30.83;100481.56;4349315;32;34038;-63
2023/12/04 10:51:34;;;;;;;7.25;4.20;;;;;;;25.98;30.90;100482.03;4332357;33;33804;-63
2023/12/04 10:54:05;;;;;;;7.60;4.28;;;;;;;25.93;30.88;100479.12;4356484;32;33602;-63
2023/12/04 10:56:38;;;;;;;12.35;5.50;;;;;;;25.88;30.92;100477.09;4362188;32;34037;-62
2023/12/04 10:59:10;;;;;;;11.63;4.72;;;;;;;25.84;31.02;100477.75;4361679;32;33386;-62
2023/12/04 11:01:38;;;;;;;10.05;4.47;;;;;;;25.82;31.02;100468.94;4347993;32;34726;-63
2023/12/04 11:04:07;;;;;;;10.75;4.30;;;;;;;25.78;31.13;100473.19;4347515;32;33523;-63
2023/12/04 11:06:35;;;;;;;9.32;4.22;;;;;;;25.73;31.27;100473.00;4341903;33;34813;-62
2023/12/04 11:09:02;;;;;;;7.62;4.15;;;;;;;25.74;30.94;100466.47;4334828;32;34467;-61
2023/12/04 11:11:31;;;;;;;12.63;5.25;;;;;;;25.69;30.97;100465.25;4329212;32;34048;-62
2023/12/04 11:14:01;;;;;;;19.10;4.25;;;;;;;25.69;31.04;100458.94;4348994;32;33825;-62
2023/12/04 11:16:37;;;;;;;10.73;4.32;;;;;;;25.73;31.23;100457.41;4361340;32;33813;-62
2023/12/04 11:19:26;;;;;;;9.57;4.32;;;;;;;25.82;31.24;100453.38;4362100;32;33892;-62
2023/12/04 11:21:54;;;;;;;12.57;4.62;;;;;;;25.91;31.22;100448.44;4352642;32;33986;-62
2023/12/04 11:24:21;;;;;;;7.80;4.22;;;;;;;25.97;31.20;100449.41;4336350;32;33326;-61
2023/12/04 11:26:49;;;;;;;9.63;4.37;;;;;;;26.02;31.19;100438.62;4362042;32;33573;-62
2023/12/04 11:29:16;;;;;;;8.77;3.70;;;;;;;26.06;31.23;100448.06;4361396;32;34825;-62